General O'Brien, Argentina
Current Conditions -  °F | °C
As of 4:00 PM on Thursday 23 Oct 2014 (Local Time) from SAEZ Reporting Station
Clear Clear  
Wind Chill: 88°   Ceiling: Unl
Heat Index: 88°   Visibility: 6mi
Dew Point: 63°   Wind: 9mph
Humidity: 43%   Direction: 70°ENE
Pressure: 29.91"   Gusts: NA
Location:  34.91°S, 60.63°W
Report Text: SAEZ 231900Z 07008KT 020V090 CAVOK 31/17 Q1013
Loading
Personal Weather Stations






























Interactive Weather Map New forecast layout! Learn more

10-Day Weather Forecast

Advertisements
Track Severe Weather on mobile